DAKAY UOOO-UUEE
Flight info
| Callsign | DAKAY |
|---|---|
| Flight time | N/A |
| Altitude | 38000 |
| Route | N0490F380 BI T791 ARKUK T818 USINA T187 ROMTA |
| Aircraft | A359/H-VGDW/C |
Departure
| Time | 2026-04-17 12:33 |
|---|---|
| Airport | Alykel International Airport (UOOO) |
Arrival
| Time | N/A |
|---|---|
| Airport | Sheremetyevo International Airport (UUEE) |
| Time | Latitude | Longitude | Altitude | Speed | Heading |
|---|---|---|---|---|---|
| 2026-04-17 11:47 | 69.32363 | 87.34729 | 2423 ft | 0 kts | 332° |
| 2026-04-17 12:26 | 69.32373 | 87.34715 | 2423 ft | 6 kts | 332° |
| 2026-04-17 12:27 | 69.32396 | 87.34624 | 2423 ft | 5 kts | 276° |
| 2026-04-17 12:27 | 69.32376 | 87.34536 | 2423 ft | 6 kts | 224° |
| 2026-04-17 12:27 | 69.32352 | 87.34478 | 2423 ft | 8 kts | 219° |
| 2026-04-17 12:27 | 69.32268 | 87.34315 | 2423 ft | 18 kts | 211° |
| 2026-04-17 12:28 | 69.32153 | 87.34120 | 2423 ft | 20 kts | 211° |
| 2026-04-17 12:28 | 69.32028 | 87.33900 | 2423 ft | 22 kts | 214° |
| 2026-04-17 12:28 | 69.31889 | 87.33739 | 2423 ft | 22 kts | 178° |
| 2026-04-17 12:28 | 69.31732 | 87.33817 | 612 ft | 24 kts | 165° |
| 2026-04-17 12:29 | 69.31564 | 87.33918 | 624 ft | 25 kts | 180° |
| 2026-04-17 12:29 | 69.31403 | 87.33712 | 615 ft | 26 kts | 210° |
| 2026-04-17 12:29 | 69.31185 | 87.33335 | 611 ft | 54 kts | 212° |
| 2026-04-17 12:29 | 69.30864 | 87.32759 | 614 ft | 55 kts | 212° |
| 2026-04-17 12:30 | 69.30545 | 87.32190 | 621 ft | 54 kts | 212° |
| 2026-04-17 12:30 | 69.30229 | 87.31621 | 625 ft | 53 kts | 212° |
| 2026-04-17 12:30 | 69.30014 | 87.31228 | 625 ft | 32 kts | 214° |
| 2026-04-17 12:30 | 69.29871 | 87.30864 | 623 ft | 22 kts | 235° |
| 2026-04-17 12:31 | 69.29842 | 87.30830 | 615 ft | 1 kts | 152° |
| 2026-04-17 12:31 | 69.29836 | 87.30905 | 614 ft | 4 kts | 85° |
| 2026-04-17 12:31 | 69.29846 | 87.30929 | 614 ft | 2 kts | 32° |
| 2026-04-17 12:31 | 69.29868 | 87.30969 | 614 ft | 5 kts | 32° |
| 2026-04-17 12:32 | 69.29910 | 87.31043 | 628 ft | 9 kts | 32° |
| 2026-04-17 12:32 | 69.30144 | 87.31471 | 625 ft | 80 kts | 32° |
| 2026-04-17 12:32 | 69.30845 | 87.32735 | 624 ft | 156 kts | 32° |
| 2026-04-17 12:32 | 69.31899 | 87.34647 | 935 ft | 196 kts | 33° |
| 2026-04-17 12:33 | 69.33218 | 87.35887 | 2076 ft | 204 kts | 2° |
| 2026-04-17 12:33 | 69.34432 | 87.34542 | 3599 ft | 182 kts | 314° |
| 2026-04-17 12:33 | 69.34823 | 87.31333 | 4618 ft | 178 kts | 273° |
| 2026-04-17 12:33 | 69.34832 | 87.27603 | 5047 ft | 203 kts | 270° |
| 2026-04-17 12:34 | 69.34832 | 87.23404 | 5435 ft | 229 kts | 270° |
| 2026-04-17 12:34 | 69.34832 | 87.18652 | 5939 ft | 250 kts | 270° |
| 2026-04-17 12:34 | 69.34833 | 87.13556 | 6731 ft | 259 kts | 270° |
| 2026-04-17 12:34 | 69.34834 | 87.08395 | 7601 ft | 264 kts | 269° |
| 2026-04-17 12:35 | 69.34839 | 87.03150 | 8536 ft | 268 kts | 269° |
| 2026-04-17 12:35 | 69.34854 | 86.97836 | 9506 ft | 272 kts | 270° |
| 2026-04-17 12:35 | 69.34938 | 86.92435 | 10381 ft | 279 kts | 278° |
| 2026-04-17 12:35 | 69.35664 | 86.87121 | 10801 ft | 302 kts | 296° |
| 2026-04-17 12:37 | 69.40786 | 86.44144 | 16020 ft | 344 kts | 278° |
| 2026-04-17 12:37 | 69.41007 | 86.37353 | 16788 ft | 347 kts | 271° |
| 2026-04-17 12:38 | 69.41075 | 86.30479 | 17548 ft | 350 kts | 270° |
| 2026-04-17 12:38 | 69.41107 | 86.23512 | 18285 ft | 354 kts | 268° |
| 2026-04-17 12:38 | 69.41002 | 86.16495 | 18927 ft | 358 kts | 265° |
| 2026-04-17 12:38 | 69.40798 | 86.09398 | 19534 ft | 362 kts | 263° |
| 2026-04-17 12:39 | 69.40536 | 86.02223 | 20157 ft | 366 kts | 262° |
| 2026-04-17 12:39 | 69.40245 | 85.94997 | 20751 ft | 371 kts | 262° |
| 2026-04-17 12:39 | 69.39939 | 85.87680 | 21341 ft | 376 kts | 262° |
| 2026-04-17 12:39 | 69.39630 | 85.80272 | 21925 ft | 380 kts | 262° |
| 2026-04-17 12:40 | 69.39317 | 85.72788 | 22532 ft | 384 kts | 262° |
| 2026-04-17 12:40 | 69.39004 | 85.65217 | 23129 ft | 389 kts | 263° |
| 2026-04-17 12:40 | 69.38695 | 85.57544 | 23713 ft | 393 kts | 263° |
| 2026-04-17 12:40 | 69.38390 | 85.49800 | 24182 ft | 398 kts | 263° |
| 2026-04-17 12:41 | 69.38090 | 85.42066 | 24672 ft | 401 kts | 263° |
| 2026-04-17 12:41 | 69.37783 | 85.34171 | 25184 ft | 404 kts | 263° |
| 2026-04-17 12:41 | 69.37468 | 85.26218 | 25681 ft | 408 kts | 263° |
| 2026-04-17 12:41 | 69.37143 | 85.18182 | 26180 ft | 412 kts | 263° |
| 2026-04-17 12:42 | 69.36807 | 85.10052 | 26700 ft | 416 kts | 263° |
| 2026-04-17 12:42 | 69.36464 | 85.01876 | 27236 ft | 420 kts | 263° |
| 2026-04-17 12:42 | 69.36113 | 84.93629 | 27756 ft | 423 kts | 263° |
| 2026-04-17 12:42 | 69.35755 | 84.85307 | 28286 ft | 427 kts | 263° |
| 2026-04-17 12:43 | 69.35390 | 84.76912 | 28805 ft | 431 kts | 263° |
| 2026-04-17 12:43 | 69.35017 | 84.68454 | 29297 ft | 435 kts | 263° |
| 2026-04-17 12:43 | 69.34637 | 84.59915 | 29802 ft | 438 kts | 263° |
| 2026-04-17 12:43 | 69.34250 | 84.51317 | 30277 ft | 442 kts | 263° |
| 2026-04-17 12:44 | 69.33854 | 84.42639 | 30672 ft | 446 kts | 263° |
| 2026-04-17 12:44 | 69.33452 | 84.33908 | 31055 ft | 450 kts | 263° |
| 2026-04-17 12:44 | 69.33042 | 84.25088 | 31444 ft | 453 kts | 263° |
| 2026-04-17 12:44 | 69.32624 | 84.16225 | 31823 ft | 457 kts | 263° |
| 2026-04-17 12:45 | 69.32197 | 84.07254 | 32189 ft | 460 kts | 263° |
| 2026-04-17 12:45 | 69.31763 | 83.98251 | 32548 ft | 464 kts | 263° |
| 2026-04-17 12:45 | 69.31322 | 83.89194 | 32905 ft | 467 kts | 263° |
| 2026-04-17 12:45 | 69.30872 | 83.80067 | 33234 ft | 470 kts | 263° |
| 2026-04-17 12:46 | 69.30414 | 83.70878 | 33555 ft | 474 kts | 263° |
| 2026-04-17 12:46 | 69.29949 | 83.61644 | 33888 ft | 477 kts | 263° |
| 2026-04-17 12:46 | 69.29476 | 83.52343 | 34182 ft | 480 kts | 263° |
| 2026-04-17 12:46 | 69.28993 | 83.42985 | 34422 ft | 483 kts | 263° |
| 2026-04-17 12:47 | 69.28502 | 83.33554 | 34652 ft | 487 kts | 263° |
| 2026-04-17 12:47 | 69.28005 | 83.24099 | 34944 ft | 488 kts | 262° |
| 2026-04-17 12:47 | 69.27500 | 83.14612 | 35300 ft | 487 kts | 262° |
| 2026-04-17 12:47 | 69.26991 | 83.05157 | 35672 ft | 487 kts | 262° |
| 2026-04-17 12:48 | 69.26477 | 82.95717 | 36016 ft | 487 kts | 262° |
| 2026-04-17 12:48 | 69.25958 | 82.86277 | 36343 ft | 488 kts | 262° |
| 2026-04-17 12:48 | 69.25434 | 82.76830 | 36671 ft | 488 kts | 262° |
| 2026-04-17 12:48 | 69.24905 | 82.67388 | 37009 ft | 488 kts | 262° |
| 2026-04-17 12:49 | 69.24549 | 82.61097 | 37230 ft | 488 kts | 262° |